sensor_id;sensor_type;location;lat;lon;timestamp;P1;durP1;ratioP1;P2;durP2;ratioP2
38113;SDS011;23926;53.222;6.354;2022-07-29T00:00:08;4.15;;;1.90;;
38113;SDS011;23926;53.222;6.354;2022-07-29T00:02:35;4.65;;;2.10;;
38113;SDS011;23926;53.222;6.354;2022-07-29T00:05:01;3.00;;;1.90;;
38113;SDS011;23926;53.222;6.354;2022-07-29T00:07:27;4.30;;;1.88;;
38113;SDS011;23926;53.222;6.354;2022-07-29T00:09:52;3.13;;;1.83;;
38113;SDS011;23926;53.222;6.354;2022-07-29T00:12:21;2.75;;;1.70;;
38113;SDS011;23926;53.222;6.354;2022-07-29T00:14:47;4.05;;;2.10;;
38113;SDS011;23926;53.222;6.354;2022-07-29T00:17:13;5.47;;;1.95;;
38113;SDS011;23926;53.222;6.354;2022-07-29T00:19:38;3.88;;;2.05;;
38113;SDS011;23926;53.222;6.354;2022-07-29T00:22:04;2.15;;;1.85;;
38113;SDS011;23926;53.222;6.354;2022-07-29T00:24:29;4.03;;;2.10;;
38113;SDS011;23926;53.222;6.354;2022-07-29T00:26:54;6.38;;;2.35;;
38113;SDS011;23926;53.222;6.354;2022-07-29T00:29:20;4.43;;;2.13;;
38113;SDS011;23926;53.222;6.354;2022-07-29T00:31:45;4.18;;;2.20;;
38113;SDS011;23926;53.222;6.354;2022-07-29T00:34:11;4.18;;;2.45;;
38113;SDS011;23926;53.222;6.354;2022-07-29T00:39:20;3.13;;;1.98;;
38113;SDS011;23926;53.222;6.354;2022-07-29T00:41:45;3.20;;;2.25;;
38113;SDS011;23926;53.222;6.354;2022-07-29T00:44:11;3.97;;;2.13;;
38113;SDS011;23926;53.222;6.354;2022-07-29T00:46:36;4.57;;;2.15;;
38113;SDS011;23926;53.222;6.354;2022-07-29T00:49:01;9.80;;;3.00;;
38113;SDS011;23926;53.222;6.354;2022-07-29T00:51:27;4.03;;;2.92;;
38113;SDS011;23926;53.222;6.354;2022-07-29T00:53:53;4.00;;;2.60;;
38113;SDS011;23926;53.222;6.354;2022-07-29T00:56:18;4.03;;;2.53;;
38113;SDS011;23926;53.222;6.354;2022-07-29T00:58:44;2.55;;;2.30;;
38113;SDS011;23926;53.222;6.354;2022-07-29T01:01:12;7.70;;;2.58;;
38113;SDS011;23926;53.222;6.354;2022-07-29T01:03:37;5.10;;;2.67;;
38113;SDS011;23926;53.222;6.354;2022-07-29T01:06:03;2.92;;;2.50;;
38113;SDS011;23926;53.222;6.354;2022-07-29T01:08:29;4.97;;;2.35;;
38113;SDS011;23926;53.222;6.354;2022-07-29T01:10:57;5.10;;;2.40;;
38113;SDS011;23926;53.222;6.354;2022-07-29T01:13:24;5.22;;;2.35;;
38113;SDS011;23926;53.222;6.354;2022-07-29T01:15:55;4.65;;;2.10;;
38113;SDS011;23926;53.222;6.354;2022-07-29T01:18:28;3.72;;;2.10;;
38113;SDS011;23926;53.222;6.354;2022-07-29T01:34:25;5.00;;;2.50;;
38113;SDS011;23926;53.222;6.354;2022-07-29T01:36:55;4.50;;;2.70;;
38113;SDS011;23926;53.222;6.354;2022-07-29T01:39:32;3.13;;;2.30;;
38113;SDS011;23926;53.222;6.354;2022-07-29T01:45:05;4.45;;;2.38;;
38113;SDS011;23926;53.222;6.354;2022-07-29T01:47:37;4.88;;;2.10;;
38113;SDS011;23926;53.222;6.354;2022-07-29T01:50:07;3.35;;;2.35;;
38113;SDS011;23926;53.222;6.354;2022-07-29T01:52:37;5.50;;;2.50;;
38113;SDS011;23926;53.222;6.354;2022-07-29T01:55:07;7.95;;;2.63;;
38113;SDS011;23926;53.222;6.354;2022-07-29T01:57:37;3.80;;;2.80;;
38113;SDS011;23926;53.222;6.354;2022-07-29T02:00:05;4.68;;;2.30;;
38113;SDS011;23926;53.222;6.354;2022-07-29T02:02:31;4.18;;;2.60;;
38113;SDS011;23926;53.222;6.354;2022-07-29T02:04:58;2.47;;;2.13;;
38113;SDS011;23926;53.222;6.354;2022-07-29T02:07:27;5.50;;;2.03;;
38113;SDS011;23926;53.222;6.354;2022-07-29T02:09:54;4.75;;;2.40;;
38113;SDS011;23926;53.222;6.354;2022-07-29T02:12:20;3.60;;;2.63;;
38113;SDS011;23926;53.222;6.354;2022-07-29T02:14:48;5.15;;;2.50;;
38113;SDS011;23926;53.222;6.354;2022-07-29T02:17:18;4.22;;;2.92;;
38113;SDS011;23926;53.222;6.354;2022-07-29T02:19:47;3.75;;;2.35;;
38113;SDS011;23926;53.222;6.354;2022-07-29T02:22:14;5.63;;;3.00;;
38113;SDS011;23926;53.222;6.354;2022-07-29T02:24:41;5.03;;;2.40;;
38113;SDS011;23926;53.222;6.354;2022-07-29T02:27:07;4.35;;;2.40;;
38113;SDS011;23926;53.222;6.354;2022-07-29T02:29:34;3.17;;;2.35;;
38113;SDS011;23926;53.222;6.354;2022-07-29T02:32:00;3.80;;;2.20;;
38113;SDS011;23926;53.222;6.354;2022-07-29T02:34:28;6.53;;;2.58;;
38113;SDS011;23926;53.222;6.354;2022-07-29T02:36:54;3.38;;;2.28;;
38113;SDS011;23926;53.222;6.354;2022-07-29T02:39:20;4.20;;;2.55;;
38113;SDS011;23926;53.222;6.354;2022-07-29T02:41:48;5.10;;;2.40;;
38113;SDS011;23926;53.222;6.354;2022-07-29T02:44:17;4.70;;;2.42;;
38113;SDS011;23926;53.222;6.354;2022-07-29T02:46:49;4.32;;;2.92;;
38113;SDS011;23926;53.222;6.354;2022-07-29T02:51:54;3.15;;;2.40;;
38113;SDS011;23926;53.222;6.354;2022-07-29T02:54:30;5.75;;;2.65;;
38113;SDS011;23926;53.222;6.354;2022-07-29T02:57:04;5.88;;;2.47;;
38113;SDS011;23926;53.222;6.354;2022-07-29T02:59:36;5.97;;;2.33;;
38113;SDS011;23926;53.222;6.354;2022-07-29T03:02:04;4.63;;;2.30;;
38113;SDS011;23926;53.222;6.354;2022-07-29T03:04:31;4.60;;;2.20;;
38113;SDS011;23926;53.222;6.354;2022-07-29T03:06:58;5.45;;;2.28;;
38113;SDS011;23926;53.222;6.354;2022-07-29T03:09:25;2.88;;;2.10;;
38113;SDS011;23926;53.222;6.354;2022-07-29T03:11:52;2.58;;;2.08;;
38113;SDS011;23926;53.222;6.354;2022-07-29T03:14:19;8.60;;;2.70;;
38113;SDS011;23926;53.222;6.354;2022-07-29T03:16:45;3.67;;;2.28;;
38113;SDS011;23926;53.222;6.354;2022-07-29T03:19:11;6.20;;;2.78;;
38113;SDS011;23926;53.222;6.354;2022-07-29T03:21:37;3.95;;;2.22;;
38113;SDS011;23926;53.222;6.354;2022-07-29T03:24:03;5.45;;;2.50;;
38113;SDS011;23926;53.222;6.354;2022-07-29T03:26:29;2.58;;;2.30;;
38113;SDS011;23926;53.222;6.354;2022-07-29T03:28:55;5.95;;;2.50;;
38113;SDS011;23926;53.222;6.354;2022-07-29T03:31:20;3.15;;;2.22;;
38113;SDS011;23926;53.222;6.354;2022-07-29T03:33:46;5.07;;;2.20;;
38113;SDS011;23926;53.222;6.354;2022-07-29T03:36:11;6.30;;;2.30;;
38113;SDS011;23926;53.222;6.354;2022-07-29T03:38:36;5.70;;;2.30;;
38113;SDS011;23926;53.222;6.354;2022-07-29T03:41:07;4.10;;;2.35;;
38113;SDS011;23926;53.222;6.354;2022-07-29T03:43:36;3.57;;;2.40;;
38113;SDS011;23926;53.222;6.354;2022-07-29T03:46:04;2.53;;;2.30;;
38113;SDS011;23926;53.222;6.354;2022-07-29T03:48:33;5.25;;;2.50;;
38113;SDS011;23926;53.222;6.354;2022-07-29T03:51:00;4.95;;;2.60;;
38113;SDS011;23926;53.222;6.354;2022-07-29T03:53:26;3.78;;;2.60;;
38113;SDS011;23926;53.222;6.354;2022-07-29T03:55:53;5.47;;;2.85;;
38113;SDS011;23926;53.222;6.354;2022-07-29T03:58:23;8.02;;;2.80;;
38113;SDS011;23926;53.222;6.354;2022-07-29T04:00:51;4.25;;;2.30;;
38113;SDS011;23926;53.222;6.354;2022-07-29T04:03:18;11.63;;;2.85;;
38113;SDS011;23926;53.222;6.354;2022-07-29T04:05:44;6.57;;;2.70;;
38113;SDS011;23926;53.222;6.354;2022-07-29T04:08:09;6.90;;;2.70;;
38113;SDS011;23926;53.222;6.354;2022-07-29T04:10:35;6.57;;;2.65;;
38113;SDS011;23926;53.222;6.354;2022-07-29T04:13:00;4.57;;;2.13;;
38113;SDS011;23926;53.222;6.354;2022-07-29T04:15:26;5.40;;;2.58;;
38113;SDS011;23926;53.222;6.354;2022-07-29T04:17:53;7.35;;;2.55;;
38113;SDS011;23926;53.222;6.354;2022-07-29T04:20:20;6.75;;;2.60;;
38113;SDS011;23926;53.222;6.354;2022-07-29T04:22:45;8.05;;;2.03;;
38113;SDS011;23926;53.222;6.354;2022-07-29T04:25:10;8.43;;;2.60;;
38113;SDS011;23926;53.222;6.354;2022-07-29T04:27:36;3.92;;;1.90;;
38113;SDS011;23926;53.222;6.354;2022-07-29T04:30:21;3.35;;;2.78;;
38113;SDS011;23926;53.222;6.354;2022-07-29T04:32:46;5.10;;;2.00;;
38113;SDS011;23926;53.222;6.354;2022-07-29T04:35:12;6.00;;;2.33;;
38113;SDS011;23926;53.222;6.354;2022-07-29T04:37:37;2.70;;;1.90;;
38113;SDS011;23926;53.222;6.354;2022-07-29T04:40:03;4.63;;;2.22;;
38113;SDS011;23926;53.222;6.354;2022-07-29T04:42:28;4.55;;;2.60;;
38113;SDS011;23926;53.222;6.354;2022-07-29T04:44:54;3.55;;;1.98;;
38113;SDS011;23926;53.222;6.354;2022-07-29T04:47:19;4.75;;;2.03;;
38113;SDS011;23926;53.222;6.354;2022-07-29T04:49:44;2.85;;;1.73;;
38113;SDS011;23926;53.222;6.354;2022-07-29T04:52:10;4.13;;;2.10;;
38113;SDS011;23926;53.222;6.354;2022-07-29T04:54:35;4.18;;;1.95;;
38113;SDS011;23926;53.222;6.354;2022-07-29T04:57:00;5.28;;;1.95;;
38113;SDS011;23926;53.222;6.354;2022-07-29T04:59:26;2.33;;;1.90;;
38113;SDS011;23926;53.222;6.354;2022-07-29T05:01:51;4.57;;;2.35;;
38113;SDS011;23926;53.222;6.354;2022-07-29T05:04:17;4.35;;;2.50;;
38113;SDS011;23926;53.222;6.354;2022-07-29T05:06:42;5.05;;;2.35;;
38113;SDS011;23926;53.222;6.354;2022-07-29T05:09:08;5.45;;;2.30;;
38113;SDS011;23926;53.222;6.354;2022-07-29T05:11:33;7.18;;;2.15;;
38113;SDS011;23926;53.222;6.354;2022-07-29T05:13:58;3.67;;;2.03;;
38113;SDS011;23926;53.222;6.354;2022-07-29T05:16:24;5.65;;;2.13;;
38113;SDS011;23926;53.222;6.354;2022-07-29T05:18:49;7.05;;;2.00;;
38113;SDS011;23926;53.222;6.354;2022-07-29T05:21:14;3.58;;;2.38;;
38113;SDS011;23926;53.222;6.354;2022-07-29T05:23:40;3.90;;;2.03;;
38113;SDS011;23926;53.222;6.354;2022-07-29T05:26:05;4.68;;;2.03;;
38113;SDS011;23926;53.222;6.354;2022-07-29T05:28:34;3.88;;;2.05;;
38113;SDS011;23926;53.222;6.354;2022-07-29T05:30:59;3.42;;;1.98;;
38113;SDS011;23926;53.222;6.354;2022-07-29T05:33:25;4.43;;;1.90;;
38113;SDS011;23926;53.222;6.354;2022-07-29T05:35:50;4.40;;;2.10;;
38113;SDS011;23926;53.222;6.354;2022-07-29T05:38:16;3.80;;;1.92;;
38113;SDS011;23926;53.222;6.354;2022-07-29T05:40:43;4.32;;;2.10;;
38113;SDS011;23926;53.222;6.354;2022-07-29T05:43:08;6.20;;;2.30;;
38113;SDS011;23926;53.222;6.354;2022-07-29T05:45:33;2.90;;;2.08;;
38113;SDS011;23926;53.222;6.354;2022-07-29T05:47:59;2.97;;;2.03;;
38113;SDS011;23926;53.222;6.354;2022-07-29T05:50:24;3.08;;;1.90;;
38113;SDS011;23926;53.222;6.354;2022-07-29T05:52:50;6.72;;;2.40;;
38113;SDS011;23926;53.222;6.354;2022-07-29T05:55:15;7.45;;;2.40;;
38113;SDS011;23926;53.222;6.354;2022-07-29T05:57:40;5.93;;;1.95;;
38113;SDS011;23926;53.222;6.354;2022-07-29T06:00:08;7.82;;;2.78;;
38113;SDS011;23926;53.222;6.354;2022-07-29T06:02:34;2.72;;;2.22;;
38113;SDS011;23926;53.222;6.354;2022-07-29T06:04:59;4.90;;;2.13;;
38113;SDS011;23926;53.222;6.354;2022-07-29T06:07:25;5.47;;;1.90;;
38113;SDS011;23926;53.222;6.354;2022-07-29T06:09:50;8.38;;;2.60;;
38113;SDS011;23926;53.222;6.354;2022-07-29T06:12:15;5.13;;;2.38;;
38113;SDS011;23926;53.222;6.354;2022-07-29T06:14:41;5.20;;;2.40;;
38113;SDS011;23926;53.222;6.354;2022-07-29T06:17:07;6.70;;;2.45;;
38113;SDS011;23926;53.222;6.354;2022-07-29T06:19:35;3.88;;;1.98;;
38113;SDS011;23926;53.222;6.354;2022-07-29T06:22:01;2.83;;;1.98;;
38113;SDS011;23926;53.222;6.354;2022-07-29T06:24:26;5.75;;;2.85;;
38113;SDS011;23926;53.222;6.354;2022-07-29T06:26:52;2.30;;;1.80;;
38113;SDS011;23926;53.222;6.354;2022-07-29T06:29:17;5.05;;;2.13;;
38113;SDS011;23926;53.222;6.354;2022-07-29T06:31:43;6.97;;;2.10;;
38113;SDS011;23926;53.222;6.354;2022-07-29T06:34:08;5.18;;;2.70;;
38113;SDS011;23926;53.222;6.354;2022-07-29T06:36:34;3.08;;;2.40;;
38113;SDS011;23926;53.222;6.354;2022-07-29T06:39:01;6.28;;;2.40;;
38113;SDS011;23926;53.222;6.354;2022-07-29T06:41:29;7.20;;;2.47;;
38113;SDS011;23926;53.222;6.354;2022-07-29T06:43:54;4.32;;;2.20;;
38113;SDS011;23926;53.222;6.354;2022-07-29T06:46:20;6.35;;;2.90;;
38113;SDS011;23926;53.222;6.354;2022-07-29T06:48:46;7.65;;;2.20;;
38113;SDS011;23926;53.222;6.354;2022-07-29T06:51:12;3.80;;;2.10;;
38113;SDS011;23926;53.222;6.354;2022-07-29T06:53:38;4.32;;;2.95;;
38113;SDS011;23926;53.222;6.354;2022-07-29T06:56:05;5.32;;;2.40;;
38113;SDS011;23926;53.222;6.354;2022-07-29T06:58:33;8.07;;;2.67;;
38113;SDS011;23926;53.222;6.354;2022-07-29T07:01:00;4.60;;;2.47;;
38113;SDS011;23926;53.222;6.354;2022-07-29T07:03:27;5.75;;;2.38;;
38113;SDS011;23926;53.222;6.354;2022-07-29T07:05:53;11.50;;;3.10;;
38113;SDS011;23926;53.222;6.354;2022-07-29T07:08:19;3.85;;;2.08;;
38113;SDS011;23926;53.222;6.354;2022-07-29T07:10:45;8.23;;;2.67;;
38113;SDS011;23926;53.222;6.354;2022-07-29T07:13:11;5.00;;;2.35;;
38113;SDS011;23926;53.222;6.354;2022-07-29T07:15:36;9.48;;;2.50;;
38113;SDS011;23926;53.222;6.354;2022-07-29T07:18:02;4.22;;;1.90;;
38113;SDS011;23926;53.222;6.354;2022-07-29T07:20:28;4.10;;;2.47;;
38113;SDS011;23926;53.222;6.354;2022-07-29T07:22:54;7.78;;;2.30;;
38113;SDS011;23926;53.222;6.354;2022-07-29T07:25:19;4.82;;;2.78;;
38113;SDS011;23926;53.222;6.354;2022-07-29T07:27:45;5.05;;;2.53;;
38113;SDS011;23926;53.222;6.354;2022-07-29T07:30:10;5.57;;;2.20;;
38113;SDS011;23926;53.222;6.354;2022-07-29T07:32:36;5.38;;;2.38;;
38113;SDS011;23926;53.222;6.354;2022-07-29T07:35:03;5.68;;;2.13;;
38113;SDS011;23926;53.222;6.354;2022-07-29T07:37:30;7.57;;;3.13;;
38113;SDS011;23926;53.222;6.354;2022-07-29T07:39:55;4.45;;;2.30;;
38113;SDS011;23926;53.222;6.354;2022-07-29T07:42:21;6.28;;;2.63;;
38113;SDS011;23926;53.222;6.354;2022-07-29T07:44:46;6.30;;;2.65;;
38113;SDS011;23926;53.222;6.354;2022-07-29T07:47:13;7.20;;;2.90;;
38113;SDS011;23926;53.222;6.354;2022-07-29T07:49:39;3.55;;;2.30;;
38113;SDS011;23926;53.222;6.354;2022-07-29T07:52:05;3.65;;;2.42;;
38113;SDS011;23926;53.222;6.354;2022-07-29T07:54:30;4.55;;;2.40;;
38113;SDS011;23926;53.222;6.354;2022-07-29T07:56:56;4.45;;;2.63;;
38113;SDS011;23926;53.222;6.354;2022-07-29T07:59:22;4.30;;;2.58;;
38113;SDS011;23926;53.222;6.354;2022-07-29T08:01:47;5.50;;;2.42;;
38113;SDS011;23926;53.222;6.354;2022-07-29T08:04:13;4.50;;;2.67;;
38113;SDS011;23926;53.222;6.354;2022-07-29T08:06:38;3.45;;;2.00;;
38113;SDS011;23926;53.222;6.354;2022-07-29T08:09:04;3.05;;;2.20;;
38113;SDS011;23926;53.222;6.354;2022-07-29T08:11:30;4.55;;;2.60;;
38113;SDS011;23926;53.222;6.354;2022-07-29T08:13:55;6.93;;;2.70;;
38113;SDS011;23926;53.222;6.354;2022-07-29T08:16:21;6.18;;;2.38;;
38113;SDS011;23926;53.222;6.354;2022-07-29T08:18:46;4.82;;;2.42;;
38113;SDS011;23926;53.222;6.354;2022-07-29T08:21:13;6.15;;;3.15;;
38113;SDS011;23926;53.222;6.354;2022-07-29T08:23:39;7.15;;;2.72;;
38113;SDS011;23926;53.222;6.354;2022-07-29T08:26:11;5.68;;;3.50;;
38113;SDS011;23926;53.222;6.354;2022-07-29T08:28:37;6.22;;;2.70;;
38113;SDS011;23926;53.222;6.354;2022-07-29T08:31:04;8.07;;;3.38;;
38113;SDS011;23926;53.222;6.354;2022-07-29T08:33:30;6.18;;;2.80;;
38113;SDS011;23926;53.222;6.354;2022-07-29T08:35:55;4.53;;;2.10;;
38113;SDS011;23926;53.222;6.354;2022-07-29T08:38:21;4.00;;;2.80;;
38113;SDS011;23926;53.222;6.354;2022-07-29T08:40:46;3.10;;;2.17;;
38113;SDS011;23926;53.222;6.354;2022-07-29T08:43:12;3.95;;;2.20;;
38113;SDS011;23926;53.222;6.354;2022-07-29T08:45:48;8.15;;;3.08;;
38113;SDS011;23926;53.222;6.354;2022-07-29T08:48:16;4.93;;;2.80;;
38113;SDS011;23926;53.222;6.354;2022-07-29T08:50:43;5.72;;;2.92;;
38113;SDS011;23926;53.222;6.354;2022-07-29T08:53:10;3.97;;;2.33;;
38113;SDS011;23926;53.222;6.354;2022-07-29T08:55:41;6.45;;;2.50;;
38113;SDS011;23926;53.222;6.354;2022-07-29T08:58:08;5.78;;;2.67;;
38113;SDS011;23926;53.222;6.354;2022-07-29T09:00:34;5.32;;;2.70;;
38113;SDS011;23926;53.222;6.354;2022-07-29T09:05:34;4.32;;;2.10;;
38113;SDS011;23926;53.222;6.354;2022-07-29T09:07:59;4.68;;;2.47;;
38113;SDS011;23926;53.222;6.354;2022-07-29T09:10:26;4.40;;;2.20;;
38113;SDS011;23926;53.222;6.354;2022-07-29T09:12:53;4.32;;;2.60;;
38113;SDS011;23926;53.222;6.354;2022-07-29T09:15:19;5.50;;;3.10;;
38113;SDS011;23926;53.222;6.354;2022-07-29T09:17:46;4.22;;;2.67;;
38113;SDS011;23926;53.222;6.354;2022-07-29T09:20:15;6.80;;;2.83;;
38113;SDS011;23926;53.222;6.354;2022-07-29T09:22:42;6.60;;;2.70;;
38113;SDS011;23926;53.222;6.354;2022-07-29T09:25:07;7.20;;;2.65;;
38113;SDS011;23926;53.222;6.354;2022-07-29T09:27:33;9.30;;;3.35;;
38113;SDS011;23926;53.222;6.354;2022-07-29T09:30:03;5.88;;;3.10;;
38113;SDS011;23926;53.222;6.354;2022-07-29T09:32:31;3.47;;;2.90;;
38113;SDS011;23926;53.222;6.354;2022-07-29T09:37:46;5.22;;;2.70;;
38113;SDS011;23926;53.222;6.354;2022-07-29T09:40:12;8.88;;;3.20;;
38113;SDS011;23926;53.222;6.354;2022-07-29T09:42:39;6.78;;;3.17;;
38113;SDS011;23926;53.222;6.354;2022-07-29T09:45:04;6.75;;;3.35;;
38113;SDS011;23926;53.222;6.354;2022-07-29T09:47:40;6.72;;;2.97;;
38113;SDS011;23926;53.222;6.354;2022-07-29T09:50:06;5.80;;;3.10;;
38113;SDS011;23926;53.222;6.354;2022-07-29T09:52:31;5.40;;;3.22;;
38113;SDS011;23926;53.222;6.354;2022-07-29T09:55:07;8.52;;;3.50;;
38113;SDS011;23926;53.222;6.354;2022-07-29T09:57:33;4.93;;;3.33;;
38113;SDS011;23926;53.222;6.354;2022-07-29T10:00:00;5.78;;;2.90;;
38113;SDS011;23926;53.222;6.354;2022-07-29T10:02:29;5.65;;;3.30;;
38113;SDS011;23926;53.222;6.354;2022-07-29T10:04:55;6.50;;;3.28;;
38113;SDS011;23926;53.222;6.354;2022-07-29T10:07:21;6.68;;;3.75;;
38113;SDS011;23926;53.222;6.354;2022-07-29T10:09:54;6.35;;;3.38;;
38113;SDS011;23926;53.222;6.354;2022-07-29T10:12:21;6.53;;;3.22;;
38113;SDS011;23926;53.222;6.354;2022-07-29T10:14:47;7.75;;;3.47;;
38113;SDS011;23926;53.222;6.354;2022-07-29T10:17:13;7.10;;;3.85;;
38113;SDS011;23926;53.222;6.354;2022-07-29T10:19:41;7.13;;;3.78;;
38113;SDS011;23926;53.222;6.354;2022-07-29T10:22:07;9.57;;;4.10;;
38113;SDS011;23926;53.222;6.354;2022-07-29T10:24:34;4.85;;;3.45;;
38113;SDS011;23926;53.222;6.354;2022-07-29T10:27:02;6.65;;;3.60;;
38113;SDS011;23926;53.222;6.354;2022-07-29T10:29:29;7.57;;;3.80;;
38113;SDS011;23926;53.222;6.354;2022-07-29T10:32:00;4.50;;;3.45;;
38113;SDS011;23926;53.222;6.354;2022-07-29T10:35:01;7.05;;;3.55;;
38113;SDS011;23926;53.222;6.354;2022-07-29T10:37:45;8.73;;;3.78;;
38113;SDS011;23926;53.222;6.354;2022-07-29T10:43:21;7.20;;;3.80;;
38113;SDS011;23926;53.222;6.354;2022-07-29T10:45:54;6.97;;;4.10;;
38113;SDS011;23926;53.222;6.354;2022-07-29T10:48:22;8.35;;;3.38;;
38113;SDS011;23926;53.222;6.354;2022-07-29T10:50:54;6.40;;;3.17;;
38113;SDS011;23926;53.222;6.354;2022-07-29T10:53:25;5.72;;;3.50;;
38113;SDS011;23926;53.222;6.354;2022-07-29T10:56:44;6.45;;;3.00;;
38113;SDS011;23926;53.222;6.354;2022-07-29T11:01:48;4.28;;;3.08;;
38113;SDS011;23926;53.222;6.354;2022-07-29T11:04:15;9.00;;;3.95;;
38113;SDS011;23926;53.222;6.354;2022-07-29T11:07:26;7.65;;;3.90;;
38113;SDS011;23926;53.222;6.354;2022-07-29T11:09:29;5.03;;;3.55;;
38113;SDS011;23926;53.222;6.354;2022-07-29T11:11:55;7.35;;;4.00;;
38113;SDS011;23926;53.222;6.354;2022-07-29T11:15:21;7.10;;;2.83;;
38113;SDS011;23926;53.222;6.354;2022-07-29T11:17:19;7.22;;;3.78;;
38113;SDS011;23926;53.222;6.354;2022-07-29T11:19:45;8.20;;;3.45;;
38113;SDS011;23926;53.222;6.354;2022-07-29T11:22:11;6.72;;;3.65;;
38113;SDS011;23926;53.222;6.354;2022-07-29T11:25:14;6.90;;;3.72;;
38113;SDS011;23926;53.222;6.354;2022-07-29T11:27:39;8.00;;;3.60;;
38113;SDS011;23926;53.222;6.354;2022-07-29T11:30:05;8.43;;;3.97;;
38113;SDS011;23926;53.222;6.354;2022-07-29T11:32:41;10.20;;;3.83;;
38113;SDS011;23926;53.222;6.354;2022-07-29T11:35:22;4.72;;;3.10;;
38113;SDS011;23926;53.222;6.354;2022-07-29T11:43:45;5.72;;;3.00;;
38113;SDS011;23926;53.222;6.354;2022-07-29T11:46:12;6.68;;;3.30;;
38113;SDS011;23926;53.222;6.354;2022-07-29T11:48:41;7.43;;;2.85;;
38113;SDS011;23926;53.222;6.354;2022-07-29T11:51:11;6.88;;;3.88;;
38113;SDS011;23926;53.222;6.354;2022-07-29T11:53:37;8.05;;;3.58;;
38113;SDS011;23926;53.222;6.354;2022-07-29T11:56:03;5.50;;;3.47;;
38113;SDS011;23926;53.222;6.354;2022-07-29T11:58:32;9.70;;;3.78;;
38113;SDS011;23926;53.222;6.354;2022-07-29T12:00:59;7.32;;;3.92;;
38113;SDS011;23926;53.222;6.354;2022-07-29T12:03:26;7.05;;;3.65;;
38113;SDS011;23926;53.222;6.354;2022-07-29T12:05:52;6.40;;;3.63;;
38113;SDS011;23926;53.222;6.354;2022-07-29T12:08:19;5.63;;;3.72;;
38113;SDS011;23926;53.222;6.354;2022-07-29T12:10:47;7.18;;;4.30;;
38113;SDS011;23926;53.222;6.354;2022-07-29T12:13:14;5.43;;;3.67;;
38113;SDS011;23926;53.222;6.354;2022-07-29T12:15:53;9.45;;;4.70;;
38113;SDS011;23926;53.222;6.354;2022-07-29T12:18:20;7.75;;;3.72;;
38113;SDS011;23926;53.222;6.354;2022-07-29T12:20:46;7.32;;;3.70;;
38113;SDS011;23926;53.222;6.354;2022-07-29T12:23:13;6.20;;;3.53;;
38113;SDS011;23926;53.222;6.354;2022-07-29T12:25:42;8.20;;;3.38;;
38113;SDS011;23926;53.222;6.354;2022-07-29T12:28:10;8.73;;;2.92;;
38113;SDS011;23926;53.222;6.354;2022-07-29T12:30:41;8.02;;;3.88;;
38113;SDS011;23926;53.222;6.354;2022-07-29T12:35:52;8.80;;;3.40;;
38113;SDS011;23926;53.222;6.354;2022-07-29T12:38:20;5.03;;;3.05;;
38113;SDS011;23926;53.222;6.354;2022-07-29T12:40:46;6.40;;;3.75;;
38113;SDS011;23926;53.222;6.354;2022-07-29T12:43:16;9.57;;;3.60;;
38113;SDS011;23926;53.222;6.354;2022-07-29T12:45:47;8.18;;;3.53;;
38113;SDS011;23926;53.222;6.354;2022-07-29T12:48:15;4.72;;;3.13;;
38113;SDS011;23926;53.222;6.354;2022-07-29T12:50:54;10.25;;;4.25;;
38113;SDS011;23926;53.222;6.354;2022-07-29T12:53:24;5.93;;;2.92;;
38113;SDS011;23926;53.222;6.354;2022-07-29T12:55:50;6.03;;;3.47;;
38113;SDS011;23926;53.222;6.354;2022-07-29T12:58:30;3.45;;;2.80;;
38113;SDS011;23926;53.222;6.354;2022-07-29T13:01:10;4.13;;;3.17;;
38113;SDS011;23926;53.222;6.354;2022-07-29T13:03:54;3.95;;;2.63;;
38113;SDS011;23926;53.222;6.354;2022-07-29T13:09:04;5.30;;;2.60;;
38113;SDS011;23926;53.222;6.354;2022-07-29T13:11:33;4.57;;;2.60;;
38113;SDS011;23926;53.222;6.354;2022-07-29T13:14:10;7.88;;;3.00;;
38113;SDS011;23926;53.222;6.354;2022-07-29T13:16:38;10.65;;;3.42;;
38113;SDS011;23926;53.222;6.354;2022-07-29T13:19:37;4.72;;;2.50;;
38113;SDS011;23926;53.222;6.354;2022-07-29T13:22:05;3.20;;;2.45;;
38113;SDS011;23926;53.222;6.354;2022-07-29T13:24:31;6.53;;;2.42;;
38113;SDS011;23926;53.222;6.354;2022-07-29T13:26:57;6.05;;;3.05;;
38113;SDS011;23926;53.222;6.354;2022-07-29T13:29:23;5.50;;;2.88;;
38113;SDS011;23926;53.222;6.354;2022-07-29T13:31:48;7.18;;;3.30;;
38113;SDS011;23926;53.222;6.354;2022-07-29T13:34:13;4.75;;;2.60;;
38113;SDS011;23926;53.222;6.354;2022-07-29T13:36:39;5.10;;;2.40;;
38113;SDS011;23926;53.222;6.354;2022-07-29T13:39:04;5.30;;;2.58;;
38113;SDS011;23926;53.222;6.354;2022-07-29T13:41:29;9.15;;;2.90;;
38113;SDS011;23926;53.222;6.354;2022-07-29T13:43:55;4.70;;;2.35;;
38113;SDS011;23926;53.222;6.354;2022-07-29T13:46:20;2.92;;;2.30;;
38113;SDS011;23926;53.222;6.354;2022-07-29T13:48:46;3.88;;;2.45;;
38113;SDS011;23926;53.222;6.354;2022-07-29T13:51:11;3.97;;;2.17;;
38113;SDS011;23926;53.222;6.354;2022-07-29T13:53:37;6.15;;;2.70;;
38113;SDS011;23926;53.222;6.354;2022-07-29T13:56:02;5.88;;;2.60;;
38113;SDS011;23926;53.222;6.354;2022-07-29T13:58:30;4.82;;;2.15;;
38113;SDS011;23926;53.222;6.354;2022-07-29T14:00:56;7.40;;;2.40;;
38113;SDS011;23926;53.222;6.354;2022-07-29T14:03:21;3.40;;;2.17;;
38113;SDS011;23926;53.222;6.354;2022-07-29T14:05:47;7.00;;;2.47;;
38113;SDS011;23926;53.222;6.354;2022-07-29T14:08:13;6.15;;;2.60;;
38113;SDS011;23926;53.222;6.354;2022-07-29T14:10:38;5.55;;;2.35;;
38113;SDS011;23926;53.222;6.354;2022-07-29T14:13:03;6.03;;;2.67;;
38113;SDS011;23926;53.222;6.354;2022-07-29T14:15:29;6.93;;;2.40;;
38113;SDS011;23926;53.222;6.354;2022-07-29T14:17:54;6.57;;;2.60;;
38113;SDS011;23926;53.222;6.354;2022-07-29T14:20:20;3.20;;;2.13;;
38113;SDS011;23926;53.222;6.354;2022-07-29T14:22:45;6.03;;;2.33;;
38113;SDS011;23926;53.222;6.354;2022-07-29T14:25:10;9.68;;;2.30;;
38113;SDS011;23926;53.222;6.354;2022-07-29T14:27:36;4.30;;;2.13;;
38113;SDS011;23926;53.222;6.354;2022-07-29T14:30:01;4.43;;;2.42;;
38113;SDS011;23926;53.222;6.354;2022-07-29T14:32:26;2.72;;;2.20;;
38113;SDS011;23926;53.222;6.354;2022-07-29T14:34:52;6.82;;;2.40;;
38113;SDS011;23926;53.222;6.354;2022-07-29T14:37:17;5.72;;;2.70;;
38113;SDS011;23926;53.222;6.354;2022-07-29T14:39:43;3.90;;;2.25;;
38113;SDS011;23926;53.222;6.354;2022-07-29T14:42:08;4.90;;;2.67;;
38113;SDS011;23926;53.222;6.354;2022-07-29T14:44:35;4.57;;;2.42;;
38113;SDS011;23926;53.222;6.354;2022-07-29T14:47:00;5.80;;;2.50;;
38113;SDS011;23926;53.222;6.354;2022-07-29T14:49:26;6.97;;;2.60;;
38113;SDS011;23926;53.222;6.354;2022-07-29T14:51:52;5.32;;;2.25;;
38113;SDS011;23926;53.222;6.354;2022-07-29T14:54:17;3.42;;;2.10;;
38113;SDS011;23926;53.222;6.354;2022-07-29T14:56:42;6.03;;;2.70;;
38113;SDS011;23926;53.222;6.354;2022-07-29T14:59:08;4.97;;;2.17;;
38113;SDS011;23926;53.222;6.354;2022-07-29T15:01:33;7.40;;;2.33;;
38113;SDS011;23926;53.222;6.354;2022-07-29T15:03:59;3.72;;;2.42;;
38113;SDS011;23926;53.222;6.354;2022-07-29T15:06:24;3.65;;;2.33;;
38113;SDS011;23926;53.222;6.354;2022-07-29T15:08:50;5.35;;;2.40;;
38113;SDS011;23926;53.222;6.354;2022-07-29T15:11:15;5.43;;;2.40;;
38113;SDS011;23926;53.222;6.354;2022-07-29T15:13:41;5.70;;;2.33;;
38113;SDS011;23926;53.222;6.354;2022-07-29T15:16:06;4.55;;;2.67;;
38113;SDS011;23926;53.222;6.354;2022-07-29T15:18:32;5.45;;;2.40;;
38113;SDS011;23926;53.222;6.354;2022-07-29T15:20:57;5.75;;;2.50;;
38113;SDS011;23926;53.222;6.354;2022-07-29T15:23:22;3.72;;;2.20;;
38113;SDS011;23926;53.222;6.354;2022-07-29T15:25:48;4.18;;;2.30;;
38113;SDS011;23926;53.222;6.354;2022-07-29T15:28:13;8.30;;;2.30;;
38113;SDS011;23926;53.222;6.354;2022-07-29T15:30:39;4.10;;;2.33;;
38113;SDS011;23926;53.222;6.354;2022-07-29T15:33:08;4.03;;;2.45;;